Weather at Hamburg Helmut Schmidt Airport

Public forecast

Using degrees Celsius for public forecast. Weather courtesy of forecast.io.

Current aviation weather report (METAR) for Hamburg Helmut Schmidt Airport

2022/12/08 13:20 (retrieved 22 minutes ago)

EDDH 081320Z AUTO 29003KT 9999 BKN005 OVC020 OVC043 01/00 Q1005 TEMPO BKN004

Aviation forecast (TAF) for Hamburg Helmut Schmidt Airport

2022/12/08 12:27 (retrieved 1 hour ago)

TAF EDDH 081100Z 0812/0918 26004KT 8000 BKN004 BECMG 0812/0814 SCT012 PROB30 TEMPO 0812/0813 2000 SHSN BKN004CB TEMPO 0814/0816 BKN007 TEMPO 0816/0822 0700 FZFG BKN001 BECMG 0822/0824 3000 BR OVC003 TEMPO 0822/0910 0300 FZFG OVC001 BECMG 0902/0904 19006KT BECMG 0911/0913 6000 SCT005